YLK weather

Yalcok Airport
Margaritas, Chiapas, Mexico

Public forecast

Using degrees Celsius for public forecast. Weather courtesy of forecast.io.

METAR (pilot weather report)

Closest report is Angel Albino Corzo International Airport, 60.7 nm (112.4 km) WNW. Retrieved 2019/06/24 20:43 UTC (33 seconds ago):

MMTG 242043Z 11004KT 10SM SCT025TCU 32/21 A2989 RMK SLP085 56026 953 8/200 ISOL CI / CB DSTNTS NE E

TAF (pilot weather forecast)

Closest forecast is Angel Albino Corzo International Airport, 60.7 nm (112.4 km) WNW. Retrieved 2019/06/24 18:45 UTC (2 hours ago):

TAF MMTG 241638Z 2418/2518 02015KT P6SM BKN020 FM242200 06015KT P6SM BKN020CB OVC100 TEMPO 2422/2502 5SM TSRA BECMG 2503/2503 00000KT FM250600 00000KT P6SM VC TS SCT020CB BKN100 BKN230 FM251200 00000KT 4SM HZ OVC015 FM251500 10010KT 5SM HZ SCT015 BKN100